Time;durP1;ratioP1;P1;durP2;ratioP2;P2;SDS_P1;SDS_P2;PMS_P1;PMS_P2;Temp;Humidity;BMP_temperature;BMP_pressure;BME280_temperature;BME280_humidity;BME280_pressure;Samples;Min_cycle;Max_cycle;Signal;HPM_P1;HPM_P2
2023/04/19 00:02:27;;;;;;;7.20;1.80;;;21.30;99.90;;;;;;5099603;27;20210;-75
2023/04/19 00:04:58;;;;;;;12.20;2.22;;;21.30;99.90;;;;;;5099106;27;20241;-76
2023/04/19 00:07:29;;;;;;;8.35;1.83;;;21.40;99.90;;;;;;5096988;27;21824;-76
2023/04/19 00:10:00;;;;;;;7.38;1.90;;;21.30;99.90;;;;;;5096923;27;20211;-76
2023/04/19 00:12:32;;;;;;;7.28;2.22;;;21.30;99.90;;;;;;5101195;27;20191;-76
2023/04/19 00:15:03;;;;;;;8.43;2.45;;;21.30;99.90;;;;;;5101202;28;20217;-76
2023/04/19 00:17:36;;;;;;;8.45;2.15;;;21.40;99.90;;;;;;5097404;28;20194;-75
2023/04/19 00:20:08;;;;;;;4.90;1.90;;;21.40;99.90;;;;;;5092693;28;20228;-76
2023/04/19 00:22:39;;;;;;;9.00;2.13;;;21.50;99.90;;;;;;5110906;27;20220;-77
2023/04/19 00:25:11;;;;;;;6.10;1.58;;;21.70;99.90;;;;;;5100888;28;20960;-77
2023/04/19 00:27:42;;;;;;;8.40;1.77;;;21.80;99.90;;;;;;5096653;27;20198;-75
2023/04/19 00:30:14;;;;;;;8.25;1.92;;;21.90;99.90;;;;;;5098227;27;20212;-77
2023/04/19 00:32:47;;;;;;;5.60;1.95;;;21.90;99.90;;;;;;5101665;27;20229;-76
2023/04/19 00:35:18;;;;;;;5.38;1.60;;;22.00;99.90;;;;;;5100466;27;20217;-76
2023/04/19 00:37:49;;;;;;;7.68;1.73;;;21.90;99.90;;;;;;5100600;27;20194;-76
2023/04/19 00:40:20;;;;;;;7.05;1.67;;;21.80;99.90;;;;;;5101717;27;20206;-76
2023/04/19 00:42:51;;;;;;;9.40;1.83;;;21.80;99.90;;;;;;5104060;27;20205;-76
2023/04/19 00:45:23;;;;;;;8.65;1.70;;;21.80;99.90;;;;;;5101387;27;20202;-76
2023/04/19 00:47:57;;;;;;;4.57;1.50;;;21.90;99.90;;;;;;5104163;27;20204;-76
2023/04/19 00:50:28;;;;;;;8.50;1.75;;;22.00;99.90;;;;;;5100515;27;20225;-76
2023/04/19 00:53:00;;;;;;;6.43;1.67;;;22.10;99.90;;;;;;5108351;27;20246;-76
2023/04/19 00:55:31;;;;;;;8.73;1.40;;;22.20;99.90;;;;;;5105795;27;20222;-76
2023/04/19 00:58:02;;;;;;;5.25;1.00;;;22.30;99.90;;;;;;5107977;27;20190;-79
2023/04/19 01:00:34;;;;;;;6.25;1.42;;;22.40;99.90;;;;;;5111879;27;20692;-78
2023/04/19 01:03:07;;;;;;;6.28;1.20;;;22.50;99.90;;;;;;5101119;27;20216;-78
2023/04/19 01:05:38;;;;;;;8.55;1.60;;;22.60;99.90;;;;;;5100072;27;20328;-76
2023/04/19 01:08:09;;;;;;;8.95;1.63;;;22.70;99.90;;;;;;5099402;27;20187;-76
2023/04/19 01:10:40;;;;;;;5.88;1.40;;;22.80;99.90;;;;;;5104772;27;20228;-77
2023/04/19 01:13:11;;;;;;;8.00;1.10;;;22.80;99.90;;;;;;5099653;27;20732;-77
2023/04/19 01:15:43;;;;;;;4.63;1.48;;;22.90;99.90;;;;;;5097592;27;21089;-76
2023/04/19 01:18:16;;;;;;;7.07;1.50;;;22.90;99.90;;;;;;5100259;27;20576;-76
2023/04/19 01:20:47;;;;;;;6.55;1.52;;;23.00;99.90;;;;;;5103588;27;20198;-77
2023/04/19 01:23:20;;;;;;;3.00;1.02;;;23.00;99.90;;;;;;5115607;27;20198;-76
2023/04/19 01:25:51;;;;;;;5.65;1.50;;;23.00;99.90;;;;;;5115160;27;20229;-76
2023/04/19 01:28:22;;;;;;;8.27;1.33;;;23.10;99.90;;;;;;5119681;27;20202;-77
2023/04/19 01:30:53;;;;;;;3.10;1.00;;;23.10;99.90;;;;;;5115114;28;20777;-77
2023/04/19 01:33:24;;;;;;;5.68;1.05;;;23.20;99.90;;;;;;5099781;27;20237;-77
2023/04/19 01:35:56;;;;;;;6.00;0.93;;;23.40;99.90;;;;;;5099854;28;20540;-77
2023/04/19 01:38:29;;;;;;;5.10;1.00;;;23.50;99.90;;;;;;5100886;28;20217;-78
2023/04/19 01:41:00;;;;;;;6.90;1.05;;;23.60;99.90;;;;;;5099726;27;20194;-77
2023/04/19 01:43:34;;;;;;;4.60;1.20;;;23.80;99.90;;;;;;5098586;28;20226;-77
2023/04/19 01:46:05;;;;;;;8.55;1.33;;;23.90;99.90;;;;;;5097048;28;20195;-77
2023/04/19 01:48:36;;;;;;;6.80;1.10;;;24.00;99.90;;;;;;5098671;28;20221;-78
2023/04/19 01:51:11;;;;;;;5.28;1.02;;;24.10;99.90;;;;;;5100167;28;20199;-77
2023/04/19 01:53:44;;;;;;;8.52;1.42;;;24.10;99.90;;;;;;5100952;27;20225;-77
2023/04/19 01:56:15;;;;;;;4.90;0.90;;;24.20;99.90;;;;;;5103245;27;20423;-78
2023/04/19 01:58:47;;;;;;;6.88;1.20;;;24.20;99.90;;;;;;5103263;28;20687;-77
2023/04/19 02:01:18;;;;;;;5.47;1.15;;;24.30;99.90;;;;;;5104054;28;20209;-77
2023/04/19 02:03:51;;;;;;;4.93;1.15;;;24.40;99.90;;;;;;5102145;28;20213;-77
2023/04/19 02:06:25;;;;;;;3.35;1.10;;;24.50;99.90;;;;;;5106806;28;20584;-78
2023/04/19 02:08:58;;;;;;;5.88;1.13;;;24.60;99.90;;;;;;5100650;28;20201;-77
2023/04/19 02:11:29;;;;;;;6.43;1.20;;;24.70;99.90;;;;;;5101664;27;20210;-77
2023/04/19 02:14:00;;;;;;;4.05;1.00;;;24.80;99.90;;;;;;5098452;27;20198;-77
2023/04/19 02:16:31;;;;;;;4.88;1.13;;;24.90;99.90;;;;;;5097389;27;22525;-78
2023/04/19 02:19:05;;;;;;;8.73;1.50;;;24.90;99.90;;;;;;5107912;28;20572;-78
2023/04/19 02:21:38;;;;;;;4.53;1.10;;;24.80;99.90;;;;;;5123650;28;20198;-78
2023/04/19 02:26:59;;;;;;;5.72;1.13;;;24.90;99.90;;;;;;5087424;27;21076;-77
2023/04/19 02:29:30;;;;;;;4.63;0.98;;;25.00;99.90;;;;;;5086343;28;20651;-77
2023/04/19 02:32:04;;;;;;;4.30;1.10;;;25.10;99.90;;;;;;5071083;28;20716;-76
2023/04/19 02:34:36;;;;;;;3.97;1.00;;;25.10;99.90;;;;;;5066912;28;20285;-77
2023/04/19 02:37:07;;;;;;;3.42;1.00;;;25.20;99.90;;;;;;5074474;28;20207;-77
2023/04/19 02:39:38;;;;;;;2.95;0.80;;;25.20;99.90;;;;;;5087823;28;20206;-77
2023/04/19 02:42:11;;;;;;;3.72;0.93;;;25.30;99.90;;;;;;5088236;28;20199;-77
2023/04/19 02:44:42;;;;;;;3.28;0.80;;;25.40;99.90;;;;;;5088285;28;20196;-77
2023/04/19 02:47:13;;;;;;;3.40;0.90;;;25.40;99.90;;;;;;5073484;28;20193;-77
2023/04/19 02:49:44;;;;;;;2.25;0.82;;;25.40;99.90;;;;;;5068926;28;20606;-77
2023/04/19 02:52:16;;;;;;;7.78;1.25;;;25.40;99.90;;;;;;5070576;28;20207;-78
2023/04/19 02:54:50;;;;;;;3.08;0.85;;;25.40;99.90;;;;;;5068567;28;20199;-77
2023/04/19 02:57:24;;;;;;;7.82;1.30;;;25.40;99.90;;;;;;5068274;28;20591;-78
2023/04/19 02:59:55;;;;;;;9.13;1.60;;;25.50;99.90;;;;;;5067418;28;20199;-77
2023/04/19 03:02:26;;;;;;;8.60;1.70;;;25.50;99.90;;;;;;5070744;28;20195;-76
2023/04/19 03:04:57;;;;;;;6.57;1.55;;;25.60;99.90;;;;;;5088351;28;20319;-76
2023/04/19 03:07:28;;;;;;;5.72;1.45;;;25.80;99.90;;;;;;5086683;28;20327;-76
2023/04/19 03:09:59;;;;;;;4.97;1.55;;;25.90;99.90;;;;;;5087217;28;20199;-77
2023/04/19 03:12:32;;;;;;;4.47;1.40;;;25.90;99.90;;;;;;5089490;28;20199;-77
2023/04/19 03:15:03;;;;;;;6.55;1.77;;;25.90;99.90;;;;;;5070440;28;20207;-76
2023/04/19 03:17:34;;;;;;;10.35;1.90;;;26.00;99.90;;;;;;5088325;28;20205;-77
2023/04/19 03:20:08;;;;;;;8.13;1.75;;;25.90;99.90;;;;;;5085154;28;20195;-76
2023/04/19 03:22:40;;;;;;;9.90;2.03;;;25.90;99.90;;;;;;5096437;28;20301;-77
2023/04/19 03:25:12;;;;;;;6.40;1.60;;;25.90;99.90;;;;;;5081025;28;20595;-77
2023/04/19 03:27:46;;;;;;;7.57;1.58;;;25.90;99.90;;;;;;5087308;28;20195;-78
2023/04/19 03:30:18;;;;;;;7.38;1.52;;;25.90;99.90;;;;;;5088487;28;20680;-78
2023/04/19 03:32:51;;;;;;;8.93;2.13;;;25.90;99.90;;;;;;5088992;28;20283;-77
2023/04/19 03:35:25;;;;;;;9.52;1.98;;;25.90;99.90;;;;;;5087382;28;20627;-78
2023/04/19 03:37:56;;;;;;;7.60;1.83;;;26.00;99.90;;;;;;5078552;28;20188;-78
2023/04/19 03:40:27;;;;;;;8.15;1.65;;;26.00;99.90;;;;;;5068022;28;20193;-78
2023/04/19 03:43:00;;;;;;;5.85;1.75;;;26.00;99.90;;;;;;5054569;28;20200;-77
2023/04/19 03:45:31;;;;;;;6.70;1.70;;;26.10;99.90;;;;;;5054689;28;20217;-77
2023/04/19 03:48:02;;;;;;;6.65;1.80;;;26.00;99.90;;;;;;5054054;28;20193;-77
2023/04/19 03:50:33;;;;;;;6.47;1.80;;;26.00;99.90;;;;;;5055915;28;20200;-77
2023/04/19 03:53:05;;;;;;;8.80;1.75;;;25.90;99.90;;;;;;5073326;28;20196;-77
2023/04/19 03:55:36;;;;;;;12.68;2.13;;;25.80;99.90;;;;;;5074745;28;20283;-76
2023/04/19 03:58:09;;;;;;;8.45;1.80;;;25.90;99.90;;;;;;5073983;28;20211;-77
2023/04/19 04:00:41;;;;;;;5.07;1.60;;;25.70;99.90;;;;;;5076635;28;20220;-78
2023/04/19 04:03:14;;;;;;;10.27;1.85;;;25.60;99.90;;;;;;5074149;28;20206;-76
2023/04/19 04:05:45;;;;;;;7.10;1.70;;;25.50;99.90;;;;;;5073896;28;20293;-77
2023/04/19 04:08:17;;;;;;;4.35;1.00;;;25.40;99.90;;;;;;5075150;28;20215;-77
2023/04/19 04:10:48;;;;;;;4.80;1.20;;;25.30;99.90;;;;;;5074179;28;20199;-77
2023/04/19 04:13:21;;;;;;;6.30;1.45;;;25.30;99.90;;;;;;5064990;28;20573;-77
2023/04/19 04:15:52;;;;;;;5.25;1.30;;;25.20;99.90;;;;;;5072834;28;20214;-77
2023/04/19 04:18:25;;;;;;;5.72;1.70;;;25.20;99.90;;;;;;5056132;28;20320;-77
2023/04/19 04:20:56;;;;;;;4.75;1.42;;;25.10;99.90;;;;;;5053261;28;20243;-77
2023/04/19 04:23:28;;;;;;;5.28;1.60;;;24.90;99.90;;;;;;5063300;28;20199;-77
2023/04/19 04:26:05;;;;;;;9.02;1.88;;;24.70;99.90;;;;;;5073552;28;20236;-77
2023/04/19 04:28:38;;;;;;;7.63;1.20;;;24.60;99.90;;;;;;5073128;28;20199;-77
2023/04/19 04:31:09;;;;;;;4.60;1.20;;;24.50;99.90;;;;;;5070034;28;20195;-77
2023/04/19 04:33:40;;;;;;;5.97;1.55;;;24.40;99.90;;;;;;5061731;28;20200;-77
2023/04/19 04:36:11;;;;;;;5.40;1.45;;;24.40;99.90;;;;;;5056539;28;20295;-79
2023/04/19 04:38:43;;;;;;;7.18;1.60;;;24.30;99.90;;;;;;5060682;28;20189;-78
2023/04/19 04:41:15;;;;;;;8.18;1.60;;;24.20;99.90;;;;;;5054072;28;20220;-79
2023/04/19 04:43:50;;;;;;;7.35;1.73;;;24.30;99.90;;;;;;5063780;28;20223;-79
2023/04/19 04:46:21;;;;;;;13.57;2.08;;;24.30;99.90;;;;;;5070055;28;20228;-79
2023/04/19 04:48:52;;;;;;;7.60;1.50;;;24.30;99.90;;;;;;5056304;28;20222;-79
2023/04/19 04:51:23;;;;;;;6.35;1.67;;;24.30;99.90;;;;;;5069959;28;20198;-79
2023/04/19 04:53:55;;;;;;;10.68;1.27;;;24.30;99.90;;;;;;5072206;28;20199;-79
2023/04/19 04:56:27;;;;;;;7.68;1.40;;;24.30;99.90;;;;;;5060678;28;20188;-78
2023/04/19 04:59:00;;;;;;;7.18;1.60;;;24.20;99.90;;;;;;5067718;28;20251;-77
2023/04/19 05:01:32;;;;;;;6.78;1.40;;;24.20;99.90;;;;;;5061226;28;20687;-77
2023/04/19 05:04:03;;;;;;;6.78;1.60;;;24.10;99.90;;;;;;5063597;28;20638;-77
2023/04/19 05:06:35;;;;;;;6.88;1.80;;;24.10;99.90;;;;;;5067468;28;20239;-77
2023/04/19 05:09:06;;;;;;;9.65;1.80;;;24.10;99.90;;;;;;5072326;28;20702;-78
2023/04/19 05:11:37;;;;;;;8.10;1.58;;;24.10;99.90;;;;;;5071447;28;20291;-78
2023/04/19 05:14:11;;;;;;;7.15;1.50;;;24.10;99.90;;;;;;5074035;28;20207;-77
2023/04/19 05:16:42;;;;;;;8.90;1.67;;;24.10;99.90;;;;;;5072954;28;20210;-78
2023/04/19 05:19:13;;;;;;;8.32;1.60;;;24.10;99.90;;;;;;5061513;28;20258;-78
2023/04/19 05:21:45;;;;;;;9.85;1.83;;;24.10;99.90;;;;;;5055486;28;20610;-78
2023/04/19 05:24:16;;;;;;;6.78;1.40;;;24.10;99.90;;;;;;5065146;28;20196;-78
2023/04/19 05:26:47;;;;;;;7.03;1.67;;;24.20;99.90;;;;;;5054044;28;20246;-78
2023/04/19 05:29:20;;;;;;;7.80;1.50;;;24.10;99.90;;;;;;5067570;28;20192;-78
2023/04/19 05:31:51;;;;;;;5.75;1.60;;;24.10;99.90;;;;;;5057364;28;20572;-77
2023/04/19 05:34:22;;;;;;;8.43;1.88;;;24.10;99.90;;;;;;5054313;28;20208;-78
2023/04/19 05:36:54;;;;;;;6.40;1.60;;;24.10;99.90;;;;;;5067969;28;20214;-78
2023/04/19 05:39:25;;;;;;;7.43;1.60;;;24.20;99.90;;;;;;5071728;28;20207;-78
2023/04/19 05:41:56;;;;;;;8.98;1.77;;;24.20;99.90;;;;;;5066587;28;20212;-78
2023/04/19 05:44:31;;;;;;;5.88;1.60;;;24.20;99.90;;;;;;5060572;28;20215;-78
2023/04/19 05:47:02;;;;;;;7.90;1.77;;;24.20;99.90;;;;;;5049964;28;20239;-78
2023/04/19 05:49:34;;;;;;;8.45;1.88;;;24.30;99.90;;;;;;5058184;28;20206;-78
2023/04/19 05:52:05;;;;;;;6.45;1.63;;;24.30;99.90;;;;;;5071749;28;20199;-78
2023/04/19 05:54:36;;;;;;;8.63;1.90;;;24.30;99.90;;;;;;5068217;28;20212;-78
2023/04/19 05:57:08;;;;;;;6.70;1.65;;;24.30;99.90;;;;;;5061306;28;20200;-77
2023/04/19 05:59:41;;;;;;;7.65;1.70;;;24.30;99.90;;;;;;5071548;28;20204;-78
2023/04/19 06:02:15;;;;;;;7.38;1.60;;;24.30;99.90;;;;;;5056002;28;20196;-78
2023/04/19 06:04:46;;;;;;;7.72;1.80;;;24.30;99.90;;;;;;5062196;28;20199;-78
2023/04/19 06:07:17;;;;;;;4.90;1.33;;;24.40;99.90;;;;;;5070040;28;20743;-79
2023/04/19 06:09:48;;;;;;;9.38;1.65;;;24.30;99.90;;;;;;5072755;28;20202;-78
2023/04/19 06:12:19;;;;;;;6.22;1.92;;;24.30;99.90;;;;;;5056992;28;20211;-78
2023/04/19 06:14:52;;;;;;;8.00;1.90;;;24.50;99.90;;;;;;5053254;28;20196;-78
2023/04/19 06:17:24;;;;;;;5.70;1.55;;;24.40;99.90;;;;;;5054319;28;20207;-77
2023/04/19 06:19:55;;;;;;;7.47;1.42;;;24.50;99.90;;;;;;5063992;28;20227;-78
2023/04/19 06:22:26;;;;;;;5.32;1.73;;;24.60;99.90;;;;;;5071880;28;20219;-77
2023/04/19 06:24:57;;;;;;;4.75;1.38;;;24.70;99.90;;;;;;5071776;28;20227;-78
2023/04/19 06:27:28;;;;;;;8.38;1.70;;;24.70;99.90;;;;;;5063894;28;20247;-78
2023/04/19 06:30:01;;;;;;;8.20;1.90;;;24.60;99.90;;;;;;5064938;28;20604;-78
2023/04/19 06:32:33;;;;;;;4.93;1.30;;;24.60;99.90;;;;;;5058755;28;20219;-77
2023/04/19 06:35:08;;;;;;;7.43;1.80;;;24.70;99.90;;;;;;5057611;28;20285;-77
2023/04/19 06:37:42;;;;;;;7.10;1.45;;;24.70;99.90;;;;;;5051747;28;20246;-77
2023/04/19 06:40:13;;;;;;;6.07;1.50;;;24.50;99.90;;;;;;5063580;28;20664;-77
2023/04/19 06:42:44;;;;;;;6.47;1.35;;;24.40;99.90;;;;;;5060979;28;20203;-77
2023/04/19 06:45:18;;;;;;;6.38;1.30;;;24.20;99.90;;;;;;5051454;28;20200;-77
2023/04/19 06:47:49;;;;;;;5.55;1.48;;;24.20;99.90;;;;;;5061859;28;20234;-77
2023/04/19 06:50:20;;;;;;;3.70;1.10;;;24.20;99.90;;;;;;5050668;28;20196;-79
2023/04/19 06:52:52;;;;;;;3.42;1.00;;;24.10;99.90;;;;;;5050454;28;20577;-79
2023/04/19 06:55:23;;;;;;;5.13;1.40;;;24.00;99.90;;;;;;5048796;28;20231;-77
2023/04/19 06:57:54;;;;;;;6.25;1.40;;;23.90;99.90;;;;;;5060363;28;20683;-77
2023/04/19 07:00:27;;;;;;;7.40;1.40;;;23.90;99.90;;;;;;5056010;28;20220;-77
2023/04/19 07:02:58;;;;;;;4.70;1.25;;;23.70;99.90;;;;;;5053289;28;20575;-77
2023/04/19 07:05:29;;;;;;;6.57;1.10;;;23.70;99.90;;;;;;5054663;28;20197;-78
2023/04/19 07:08:01;;;;;;;4.30;1.30;;;23.60;99.90;;;;;;5047655;28;20228;-80
2023/04/19 07:10:32;;;;;;;4.95;1.50;;;23.50;99.90;;;;;;5045567;28;20299;-76
2023/04/19 07:13:03;;;;;;;5.57;1.10;;;23.50;99.90;;;;;;5060024;28;20208;-77
2023/04/19 07:15:37;;;;;;;8.98;1.20;;;23.40;99.90;;;;;;5064804;28;20196;-78
2023/04/19 07:18:10;;;;;;;7.80;1.52;;;23.30;99.90;;;;;;5070116;28;20551;-78
2023/04/19 07:20:43;;;;;;;10.43;1.27;;;23.20;99.90;;;;;;5060701;28;20220;-78
2023/04/19 07:23:14;;;;;;;4.53;1.13;;;23.20;99.90;;;;;;5059250;28;20692;-79
2023/04/19 07:25:45;;;;;;;4.47;1.48;;;23.10;99.90;;;;;;5061953;28;20592;-82
2023/04/19 07:28:16;;;;;;;4.00;1.20;;;23.10;99.90;;;;;;5066541;28;20227;-78
2023/04/19 07:30:49;;;;;;;5.97;1.17;;;23.00;99.90;;;;;;5053336;28;20197;-82
2023/04/19 07:33:21;;;;;;;6.90;1.10;;;22.90;99.90;;;;;;5059755;28;20193;-79
2023/04/19 07:35:52;;;;;;;4.03;1.27;;;22.90;99.90;;;;;;5062104;28;20232;-79
2023/04/19 07:38:23;;;;;;;6.63;1.20;;;22.90;99.90;;;;;;5055452;28;20193;-79
2023/04/19 07:40:54;;;;;;;5.70;1.30;;;22.80;99.90;;;;;;5064934;28;20227;-78
2023/04/19 07:43:25;;;;;;;6.03;1.48;;;22.80;99.90;;;;;;5069053;28;20199;-78
2023/04/19 07:45:58;;;;;;;7.72;1.45;;;22.70;99.90;;;;;;5070550;28;20200;-79
2023/04/19 07:48:29;;;;;;;6.60;1.73;;;22.70;99.90;;;;;;5070262;28;20702;-79
2023/04/19 07:51:09;;;;;;;6.28;1.20;;;22.70;99.90;;;;;;5069140;28;20659;-78
2023/04/19 07:53:42;;;;;;;6.25;1.25;;;22.70;99.90;;;;;;5054212;28;20253;-78
2023/04/19 07:56:14;;;;;;;5.43;1.30;;;22.70;99.90;;;;;;5060422;28;20199;-78
2023/04/19 07:58:45;;;;;;;4.10;1.10;;;22.60;99.90;;;;;;5071284;28;20655;-77
2023/04/19 08:01:18;;;;;;;7.13;1.50;;;22.60;99.90;;;;;;5055123;28;20498;-77
2023/04/19 08:03:49;;;;;;;6.15;1.20;;;22.50;99.90;;;;;;5053228;28;20228;-79
2023/04/19 08:06:20;;;;;;;7.57;1.33;;;22.50;99.90;;;;;;5058336;28;20216;-78
2023/04/19 08:08:51;;;;;;;8.32;1.77;;;22.50;99.90;;;;;;5056201;28;20225;-77
2023/04/19 08:11:23;;;;;;;4.82;1.17;;;22.50;99.90;;;;;;5063604;28;20552;-79
2023/04/19 08:13:54;;;;;;;5.05;0.90;;;22.50;99.90;;;;;;5065004;28;20280;-78
2023/04/19 08:16:28;;;;;;;6.97;1.30;;;22.50;99.90;;;;;;5067003;28;20192;-78
2023/04/19 08:18:59;;;;;;;4.60;1.50;;;22.50;99.90;;;;;;5053706;28;20591;-77
2023/04/19 08:21:30;;;;;;;4.82;1.10;;;22.40;99.90;;;;;;5070351;28;20207;-78
2023/04/19 08:24:01;;;;;;;3.88;1.27;;;22.40;99.90;;;;;;5052956;28;20192;-78
2023/04/19 08:26:32;;;;;;;4.75;1.23;;;22.40;99.90;;;;;;5054601;28;20611;-79
2023/04/19 08:29:03;;;;;;;6.20;1.27;;;22.40;99.90;;;;;;5052789;28;20672;-80
2023/04/19 08:31:37;;;;;;;5.25;1.45;;;22.40;99.90;;;;;;5057219;28;20695;-78
2023/04/19 08:34:08;;;;;;;4.50;1.25;;;22.40;99.90;;;;;;5061160;28;20196;-78
2023/04/19 08:36:39;;;;;;;8.20;1.55;;;22.40;99.90;;;;;;5063065;28;20651;-78
2023/04/19 08:39:11;;;;;;;5.18;1.25;;;22.40;99.90;;;;;;5068602;28;20200;-78
2023/04/19 08:41:42;;;;;;;3.75;1.00;;;22.40;99.90;;;;;;5069586;28;20192;-78
2023/04/19 08:44:15;;;;;;;6.55;1.55;;;22.30;99.90;;;;;;5054552;28;20596;-78
2023/04/19 08:46:49;;;;;;;6.43;1.40;;;22.30;99.90;;;;;;5057157;28;20211;-78
2023/04/19 08:49:20;;;;;;;7.10;1.77;;;22.30;99.90;;;;;;5057738;28;20302;-78
2023/04/19 08:51:52;;;;;;;3.53;1.33;;;22.30;99.90;;;;;;5063377;28;20226;-78
2023/04/19 08:54:25;;;;;;;5.50;1.50;;;22.30;99.90;;;;;;5052262;28;20577;-77
2023/04/19 08:56:56;;;;;;;9.55;1.90;;;22.30;99.90;;;;;;5071352;28;20560;-77
2023/04/19 08:59:27;;;;;;;6.40;1.60;;;22.30;99.90;;;;;;5068063;28;20590;-78
2023/04/19 09:02:02;;;;;;;6.22;1.90;;;22.30;99.90;;;;;;5060091;28;20667;-77
2023/04/19 09:04:33;;;;;;;6.40;1.60;;;22.20;99.90;;;;;;5061143;28;20541;-77
2023/04/19 09:07:04;;;;;;;6.85;1.60;;;22.20;99.90;;;;;;5057983;28;20220;-78
2023/04/19 09:09:36;;;;;;;4.30;1.40;;;22.20;99.90;;;;;;5057066;28;20571;-78
2023/04/19 09:12:19;;;;;;;5.47;1.60;;;22.20;99.90;;;;;;5054070;28;20611;-77
2023/04/19 09:14:50;;;;;;;6.15;1.67;;;22.20;99.90;;;;;;5068847;28;20347;-76
2023/04/19 09:17:23;;;;;;;4.50;1.48;;;22.10;99.90;;;;;;5063776;28;20223;-77
2023/04/19 09:19:54;;;;;;;6.55;1.60;;;22.10;99.90;;;;;;5064606;28;20199;-76
2023/04/19 09:22:25;;;;;;;10.20;2.00;;;22.10;99.90;;;;;;5056077;28;20220;-77
2023/04/19 09:24:57;;;;;;;3.63;1.40;;;22.10;99.90;;;;;;5065558;28;20227;-77
2023/04/19 09:27:30;;;;;;;5.68;1.55;;;22.10;99.90;;;;;;5050598;28;20612;-77
2023/04/19 09:30:02;;;;;;;4.45;1.23;;;22.10;99.90;;;;;;5062828;28;20272;-79
2023/04/19 09:32:48;;;;;;;7.45;1.90;;;22.10;99.90;;;;;;5055500;28;20729;-77
2023/04/19 09:35:19;;;;;;;6.20;1.60;;;22.00;99.90;;;;;;5058353;28;20226;-77
2023/04/19 09:38:02;;;;;;;7.03;1.77;;;22.00;99.90;;;;;;5053871;28;20230;-77
2023/04/19 09:40:33;;;;;;;6.32;2.03;;;22.00;99.90;;;;;;5067994;28;20215;-77
2023/04/19 09:43:05;;;;;;;6.28;1.55;;;22.00;99.90;;;;;;5066691;28;20226;-77
2023/04/19 09:45:46;;;;;;;7.68;1.95;;;22.00;99.90;;;;;;5069289;28;20579;-77
2023/04/19 09:48:19;;;;;;;9.15;1.95;;;21.90;99.90;;;;;;5070585;28;20223;-77
2023/04/19 09:50:57;;;;;;;7.45;1.70;;;21.90;99.90;;;;;;5054778;28;20663;-78
2023/04/19 09:53:29;;;;;;;5.43;1.67;;;21.90;99.90;;;;;;5058858;28;20220;-77
2023/04/19 09:56:00;;;;;;;6.88;1.77;;;21.90;99.90;;;;;;5058901;28;20594;-77
2023/04/19 09:58:31;;;;;;;7.25;1.90;;;21.90;99.90;;;;;;5055635;28;20648;-77
2023/04/19 10:01:03;;;;;;;8.98;2.17;;;22.00;99.90;;;;;;5057367;28;20691;-77
2023/04/19 10:03:36;;;;;;;6.93;2.00;;;21.90;99.90;;;;;;5055173;28;20216;-78
2023/04/19 10:06:09;;;;;;;8.95;2.08;;;22.00;99.90;;;;;;5064438;28;20219;-76
2023/04/19 10:08:41;;;;;;;9.50;2.15;;;22.00;99.90;;;;;;5059820;28;20808;-77
2023/04/19 10:11:14;;;;;;;9.38;2.67;;;21.90;99.90;;;;;;5050389;28;20189;-77
2023/04/19 10:13:46;;;;;;;7.22;1.90;;;21.80;99.90;;;;;;5058143;28;20642;-77
2023/04/19 10:16:20;;;;;;;7.50;2.05;;;21.80;99.90;;;;;;5064527;28;20220;-77
2023/04/19 10:18:54;;;;;;;6.88;2.20;;;21.80;99.90;;;;;;5058401;28;20217;-79
2023/04/19 10:21:26;;;;;;;7.65;2.08;;;21.90;99.90;;;;;;5059224;28;20191;-78
2023/04/19 10:23:58;;;;;;;6.22;1.80;;;21.80;99.90;;;;;;5060165;28;20228;-77
2023/04/19 10:26:29;;;;;;;8.38;2.25;;;21.80;99.90;;;;;;5052875;28;20221;-77
2023/04/19 10:29:00;;;;;;;9.23;2.20;;;21.80;99.90;;;;;;5055268;28;20230;-78
2023/04/19 10:31:31;;;;;;;6.40;2.00;;;21.80;99.90;;;;;;5055135;28;20201;-79
2023/04/19 10:34:07;;;;;;;6.63;2.35;;;21.80;99.90;;;;;;5048175;28;20200;-77
2023/04/19 10:36:39;;;;;;;7.53;2.38;;;21.80;99.90;;;;;;5051309;28;20195;-78
2023/04/19 10:39:43;;;;;;;10.00;2.33;;;21.80;99.90;;;;;;5066402;28;20243;-79
2023/04/19 10:42:14;;;;;;;6.93;2.20;;;21.80;99.90;;;;;;5061058;28;20659;-78
2023/04/19 10:45:05;;;;;;;10.18;2.20;;;21.80;99.90;;;;;;5065269;28;20651;-78
2023/04/19 10:47:45;;;;;;;6.68;2.20;;;21.80;99.90;;;;;;5051476;28;20267;-78
2023/04/19 10:50:19;;;;;;;4.57;1.80;;;21.80;99.90;;;;;;5061309;28;20191;-78
2023/04/19 10:52:50;;;;;;;8.65;2.00;;;21.80;99.90;;;;;;5065498;28;20356;-78
2023/04/19 10:55:22;;;;;;;6.97;2.15;;;21.70;99.90;;;;;;5063572;28;20200;-78
2023/04/19 10:58:06;;;;;;;7.45;1.80;;;21.70;99.90;;;;;;5065610;28;20239;-79
2023/04/19 11:00:37;;;;;;;6.53;2.10;;;21.70;99.90;;;;;;5068972;28;20196;-78
2023/04/19 11:03:40;;;;;;;8.13;2.10;;;21.70;99.90;;;;;;5065721;28;20206;-78
2023/04/19 11:06:25;;;;;;;7.90;2.58;;;21.60;99.90;;;;;;5057104;28;20208;-78
2023/04/19 11:08:58;;;;;;;6.80;2.20;;;21.60;99.90;;;;;;5062284;28;21229;-77
2023/04/19 11:11:30;;;;;;;6.90;2.00;;;21.60;99.90;;;;;;5066583;28;20199;-77
2023/04/19 11:14:04;;;;;;;8.10;2.22;;;21.60;99.90;;;;;;5066189;28;20329;-76
2023/04/19 11:16:35;;;;;;;7.13;2.45;;;21.50;99.90;;;;;;5061483;28;20203;-76
2023/04/19 11:19:06;;;;;;;7.20;2.50;;;21.50;99.90;;;;;;5053399;28;20211;-77
2023/04/19 11:21:42;;;;;;;12.50;2.10;;;21.50;99.90;;;;;;5063713;28;20191;-78
2023/04/19 11:24:14;;;;;;;7.35;2.47;;;21.60;99.90;;;;;;5053004;28;20275;-77
2023/04/19 11:26:46;;;;;;;6.80;2.00;;;21.60;99.90;;;;;;5050189;28;20223;-79
2023/04/19 11:29:18;;;;;;;8.52;2.03;;;21.50;99.90;;;;;;5050532;28;20229;-78
2023/04/19 11:31:49;;;;;;;5.97;1.98;;;21.50;99.90;;;;;;5051226;28;20243;-78
2023/04/19 11:34:24;;;;;;;7.75;2.20;;;21.50;99.90;;;;;;5057967;28;20216;-78
2023/04/19 11:36:57;;;;;;;8.10;2.20;;;21.50;99.90;;;;;;5057869;28;20224;-77
2023/04/19 11:39:29;;;;;;;6.50;1.95;;;21.50;99.90;;;;;;5072734;28;20204;-80
2023/04/19 11:42:01;;;;;;;8.10;2.50;;;21.50;99.90;;;;;;5058085;28;20235;-77
2023/04/19 11:44:34;;;;;;;6.90;2.42;;;21.40;99.90;;;;;;5060961;28;20220;-79
2023/04/19 11:47:08;;;;;;;7.75;2.55;;;21.50;99.90;;;;;;5056803;28;20205;-77
2023/04/19 11:49:39;;;;;;;5.35;2.00;;;21.40;99.90;;;;;;5066025;28;20231;-78
2023/04/19 11:52:12;;;;;;;7.25;2.40;;;21.40;99.90;;;;;;5060851;28;20224;-77
2023/04/19 11:54:45;;;;;;;7.90;2.25;;;21.40;99.90;;;;;;5056770;28;20299;-77
2023/04/19 11:57:16;;;;;;;7.03;2.10;;;21.40;99.90;;;;;;5050927;28;20270;-77
2023/04/19 12:00:09;;;;;;;9.30;2.40;;;21.40;99.90;;;;;;5058537;28;20208;-77
2023/04/19 12:02:44;;;;;;;8.68;2.17;;;21.40;99.90;;;;;;5058318;28;20235;-77
2023/04/19 12:05:17;;;;;;;8.45;2.13;;;21.40;99.90;;;;;;5057572;28;20211;-77
2023/04/19 12:08:10;;;;;;;11.00;2.72;;;21.40;99.90;;;;;;5054699;28;20357;-79
2023/04/19 12:10:43;;;;;;;8.05;2.53;;;21.40;99.90;;;;;;5055816;28;20272;-78
2023/04/19 12:13:21;;;;;;;11.25;2.55;;;21.40;99.90;;;;;;5061360;28;20203;-77
2023/04/19 12:15:52;;;;;;;12.25;2.80;;;21.30;99.90;;;;;;5073591;28;20203;-79
2023/04/19 12:18:23;;;;;;;10.30;2.72;;;21.30;99.90;;;;;;5070219;28;20230;-79
2023/04/19 12:20:55;;;;;;;11.90;3.03;;;21.30;99.90;;;;;;5074319;28;20191;-78
2023/04/19 12:23:28;;;;;;;7.90;2.63;;;21.30;99.90;;;;;;5067646;28;20227;-78
2023/04/19 12:25:59;;;;;;;7.78;2.70;;;21.30;99.90;;;;;;5064697;28;20224;-78
2023/04/19 12:28:30;;;;;;;11.63;3.30;;;21.30;99.90;;;;;;5054879;28;20228;-78
2023/04/19 12:31:02;;;;;;;10.48;2.90;;;21.20;99.90;;;;;;5059931;28;20295;-78
2023/04/19 12:33:33;;;;;;;10.98;3.00;;;21.20;99.90;;;;;;5068474;28;20200;-78
2023/04/19 12:36:04;;;;;;;9.57;3.03;;;21.20;99.90;;;;;;5058373;28;20192;-78
2023/04/19 12:38:37;;;;;;;9.30;3.20;;;21.20;99.90;;;;;;5067584;28;20219;-79
2023/04/19 12:41:08;;;;;;;10.35;3.53;;;21.20;99.90;;;;;;5062709;28;20706;-78
2023/04/19 12:43:39;;;;;;;11.23;3.58;;;21.20;99.90;;;;;;5065811;28;20200;-77
2023/04/19 12:46:10;;;;;;;12.20;3.30;;;21.10;99.90;;;;;;5066214;28;20639;-78
2023/04/19 12:48:41;;;;;;;10.15;2.97;;;21.20;99.90;;;;;;5061115;28;20224;-78
2023/04/19 12:51:12;;;;;;;8.40;2.88;;;21.10;99.90;;;;;;5051085;28;20596;-77
2023/04/19 12:53:51;;;;;;;8.57;3.13;;;21.00;99.90;;;;;;5062764;28;20682;-78
2023/04/19 12:56:22;;;;;;;6.82;2.55;;;21.00;99.90;;;;;;5064947;28;20201;-78
2023/04/19 12:58:53;;;;;;;8.77;2.42;;;21.00;99.90;;;;;;5059694;28;20266;-77
2023/04/19 13:01:24;;;;;;;7.57;2.47;;;20.90;99.90;;;;;;5048457;28;20506;-77
2023/04/19 13:03:55;;;;;;;6.97;2.50;;;21.00;99.90;;;;;;5066622;28;20195;-78
2023/04/19 13:06:26;;;;;;;8.15;2.40;;;21.00;99.90;;;;;;5070870;28;20196;-80
2023/04/19 13:08:59;;;;;;;8.85;2.47;;;21.00;99.90;;;;;;5056387;28;20220;-77
2023/04/19 13:11:31;;;;;;;7.45;2.70;;;21.00;99.90;;;;;;5063420;28;20207;-76
2023/04/19 13:14:02;;;;;;;7.40;2.03;;;21.00;99.90;;;;;;5061801;28;20199;-77
2023/04/19 13:16:33;;;;;;;10.30;2.38;;;21.00;99.90;;;;;;5067974;28;20192;-80